sensor_id;sensor_type;location;lat;lon;timestamp;pressure;altitude;pressure_sealevel;temperature;humidity
77011;BME280;65945;53.148;17.956;2023-06-26T00:01:01;101141.92;;;15.37;64.78
77011;BME280;65945;53.148;17.956;2023-06-26T00:03:48;101146.11;;;15.31;65.06
77011;BME280;65945;53.148;17.956;2023-06-26T00:06:15;101146.59;;;15.26;65.20
77011;BME280;65945;53.148;17.956;2023-06-26T00:08:41;101142.46;;;15.22;65.22
77011;BME280;65945;53.148;17.956;2023-06-26T00:11:09;101140.50;;;15.18;65.49
77011;BME280;65945;53.148;17.956;2023-06-26T00:13:36;101143.39;;;15.13;65.69
77011;BME280;65945;53.148;17.956;2023-06-26T00:16:02;101142.01;;;15.07;65.83
77011;BME280;65945;53.148;17.956;2023-06-26T00:18:29;101143.95;;;15.02;65.95
77011;BME280;65945;53.148;17.956;2023-06-26T00:20:56;101140.13;;;14.98;66.01
77011;BME280;65945;53.148;17.956;2023-06-26T00:23:22;101141.10;;;14.95;66.22
77011;BME280;65945;53.148;17.956;2023-06-26T00:25:49;101137.89;;;14.91;66.52
77011;BME280;65945;53.148;17.956;2023-06-26T00:28:15;101139.92;;;14.87;66.71
77011;BME280;65945;53.148;17.956;2023-06-26T00:30:42;101138.34;;;14.83;67.00
77011;BME280;65945;53.148;17.956;2023-06-26T00:33:09;101139.91;;;14.79;66.98
77011;BME280;65945;53.148;17.956;2023-06-26T00:35:35;101138.98;;;14.74;67.07
77011;BME280;65945;53.148;17.956;2023-06-26T00:38:04;101137.42;;;14.71;67.22
77011;BME280;65945;53.148;17.956;2023-06-26T00:40:31;101135.90;;;14.68;67.40
77011;BME280;65945;53.148;17.956;2023-06-26T00:42:57;101132.02;;;14.64;67.42
77011;BME280;65945;53.148;17.956;2023-06-26T00:45:24;101133.82;;;14.60;67.63
77011;BME280;65945;53.148;17.956;2023-06-26T00:47:52;101132.62;;;14.57;67.83
77011;BME280;65945;53.148;17.956;2023-06-26T00:50:19;101132.35;;;14.55;68.08
77011;BME280;65945;53.148;17.956;2023-06-26T00:52:46;101133.55;;;14.52;68.27
77011;BME280;65945;53.148;17.956;2023-06-26T00:55:13;101131.83;;;14.50;68.20
77011;BME280;65945;53.148;17.956;2023-06-26T00:57:40;101133.79;;;14.47;68.52
77011;BME280;65945;53.148;17.956;2023-06-26T01:00:08;101133.36;;;14.43;68.54
77011;BME280;65945;53.148;17.956;2023-06-26T01:02:36;101134.98;;;14.40;68.83
77011;BME280;65945;53.148;17.956;2023-06-26T01:05:06;101130.55;;;14.36;69.01
77011;BME280;65945;53.148;17.956;2023-06-26T01:07:36;101132.05;;;14.32;69.00
77011;BME280;65945;53.148;17.956;2023-06-26T01:10:04;101131.46;;;14.28;69.20
77011;BME280;65945;53.148;17.956;2023-06-26T01:12:32;101129.16;;;14.25;69.31
77011;BME280;65945;53.148;17.956;2023-06-26T01:15:00;101128.35;;;14.23;69.24
77011;BME280;65945;53.148;17.956;2023-06-26T01:17:27;101125.16;;;14.20;69.43
77011;BME280;65945;53.148;17.956;2023-06-26T01:20:01;101123.80;;;14.16;69.90
77011;BME280;65945;53.148;17.956;2023-06-26T01:22:56;101121.78;;;14.10;69.94
77011;BME280;65945;53.148;17.956;2023-06-26T01:26:13;101116.55;;;14.05;70.17
77011;BME280;65945;53.148;17.956;2023-06-26T01:28:42;101112.55;;;13.99;70.46
77011;BME280;65945;53.148;17.956;2023-06-26T01:31:10;101110.72;;;13.95;70.50
77011;BME280;65945;53.148;17.956;2023-06-26T01:33:38;101110.12;;;13.92;70.61
77011;BME280;65945;53.148;17.956;2023-06-26T01:36:07;101106.09;;;13.89;70.51
77011;BME280;65945;53.148;17.956;2023-06-26T01:38:36;101100.83;;;13.87;70.69
77011;BME280;65945;53.148;17.956;2023-06-26T01:41:04;101102.51;;;13.86;70.84
77011;BME280;65945;53.148;17.956;2023-06-26T01:49:03;101093.57;;;13.75;71.41
77011;BME280;65945;53.148;17.956;2023-06-26T01:51:43;101093.35;;;13.71;71.54
77011;BME280;65945;53.148;17.956;2023-06-26T01:54:21;101091.44;;;13.67;71.45
77011;BME280;65945;53.148;17.956;2023-06-26T01:56:52;101093.46;;;13.63;71.50
77011;BME280;65945;53.148;17.956;2023-06-26T01:59:21;101092.79;;;13.60;71.51
77011;BME280;65945;53.148;17.956;2023-06-26T02:01:48;101090.50;;;13.56;71.73
77011;BME280;65945;53.148;17.956;2023-06-26T02:04:15;101087.98;;;13.53;71.71
77011;BME280;65945;53.148;17.956;2023-06-26T02:06:42;101087.16;;;13.49;71.86
77011;BME280;65945;53.148;17.956;2023-06-26T02:09:08;101088.02;;;13.46;72.26
77011;BME280;65945;53.148;17.956;2023-06-26T02:11:35;101082.63;;;13.40;72.46
77011;BME280;65945;53.148;17.956;2023-06-26T02:14:01;101085.23;;;13.36;72.36
77011;BME280;65945;53.148;17.956;2023-06-26T02:16:29;101085.96;;;13.33;72.45
77011;BME280;65945;53.148;17.956;2023-06-26T02:18:56;101086.75;;;13.30;72.57
77011;BME280;65945;53.148;17.956;2023-06-26T02:21:24;101087.71;;;13.29;72.66
77011;BME280;65945;53.148;17.956;2023-06-26T02:23:50;101084.84;;;13.27;72.85
77011;BME280;65945;53.148;17.956;2023-06-26T02:26:17;101084.27;;;13.25;73.05
77011;BME280;65945;53.148;17.956;2023-06-26T02:28:43;101085.33;;;13.23;73.12
77011;BME280;65945;53.148;17.956;2023-06-26T02:31:12;101086.54;;;13.23;73.19
77011;BME280;65945;53.148;17.956;2023-06-26T02:33:38;101085.21;;;13.22;73.31
77011;BME280;65945;53.148;17.956;2023-06-26T02:36:05;101087.26;;;13.20;73.51
77011;BME280;65945;53.148;17.956;2023-06-26T02:38:33;101091.61;;;13.18;73.51
77011;BME280;65945;53.148;17.956;2023-06-26T02:40:59;101092.88;;;13.17;73.56
77011;BME280;65945;53.148;17.956;2023-06-26T02:43:26;101091.64;;;13.16;73.62
77011;BME280;65945;53.148;17.956;2023-06-26T02:45:53;101088.61;;;13.14;73.97
77011;BME280;65945;53.148;17.956;2023-06-26T02:48:19;101086.61;;;13.14;73.76
77011;BME280;65945;53.148;17.956;2023-06-26T02:50:46;101087.91;;;13.13;73.87
77011;BME280;65945;53.148;17.956;2023-06-26T02:53:14;101088.00;;;13.18;73.88
77011;BME280;65945;53.148;17.956;2023-06-26T02:55:44;101093.52;;;13.31;73.69
77011;BME280;65945;53.148;17.956;2023-06-26T02:58:10;101093.17;;;13.47;73.57
77011;BME280;65945;53.148;17.956;2023-06-26T03:00:37;101093.45;;;13.63;73.40
77011;BME280;65945;53.148;17.956;2023-06-26T03:03:09;101093.89;;;13.76;73.04
77011;BME280;65945;53.148;17.956;2023-06-26T03:05:35;101091.78;;;13.84;72.98
77011;BME280;65945;53.148;17.956;2023-06-26T03:08:03;101093.41;;;13.90;72.89
77011;BME280;65945;53.148;17.956;2023-06-26T03:10:30;101097.00;;;13.98;72.75
77011;BME280;65945;53.148;17.956;2023-06-26T03:12:57;101095.80;;;14.10;72.64
77011;BME280;65945;53.148;17.956;2023-06-26T03:15:24;101089.95;;;14.26;72.42
77011;BME280;65945;53.148;17.956;2023-06-26T03:17:51;101090.05;;;14.36;72.20
77011;BME280;65945;53.148;17.956;2023-06-26T03:20:22;101084.89;;;14.43;71.97
77011;BME280;65945;53.148;17.956;2023-06-26T03:22:53;101083.95;;;14.53;71.83
77011;BME280;65945;53.148;17.956;2023-06-26T03:25:20;101081.66;;;14.61;71.74
77011;BME280;65945;53.148;17.956;2023-06-26T03:27:47;101081.45;;;14.70;71.58
77011;BME280;65945;53.148;17.956;2023-06-26T03:30:15;101079.95;;;14.79;71.29
77011;BME280;65945;53.148;17.956;2023-06-26T03:32:43;101080.64;;;14.87;71.28
77011;BME280;65945;53.148;17.956;2023-06-26T03:35:09;101081.27;;;14.93;71.10
77011;BME280;65945;53.148;17.956;2023-06-26T03:37:36;101080.89;;;15.01;70.92
77011;BME280;65945;53.148;17.956;2023-06-26T03:40:03;101082.02;;;15.14;70.74
77011;BME280;65945;53.148;17.956;2023-06-26T03:42:32;101084.02;;;15.30;70.60
77011;BME280;65945;53.148;17.956;2023-06-26T03:44:58;101086.84;;;15.40;70.33
77011;BME280;65945;53.148;17.956;2023-06-26T03:47:25;101088.16;;;15.41;70.17
77011;BME280;65945;53.148;17.956;2023-06-26T03:49:52;101088.91;;;15.40;70.32
77011;BME280;65945;53.148;17.956;2023-06-26T03:52:18;101084.16;;;15.41;70.23
77011;BME280;65945;53.148;17.956;2023-06-26T03:54:45;101085.91;;;15.40;70.31
77011;BME280;65945;53.148;17.956;2023-06-26T03:57:12;101082.09;;;15.37;70.39
77011;BME280;65945;53.148;17.956;2023-06-26T03:59:38;101086.34;;;15.38;70.38
77011;BME280;65945;53.148;17.956;2023-06-26T04:02:05;101086.55;;;15.41;70.56
77011;BME280;65945;53.148;17.956;2023-06-26T04:04:32;101082.42;;;15.39;70.70
77011;BME280;65945;53.148;17.956;2023-06-26T04:06:59;101082.19;;;15.45;70.50
77011;BME280;65945;53.148;17.956;2023-06-26T04:09:26;101080.64;;;15.53;70.47
77011;BME280;65945;53.148;17.956;2023-06-26T04:11:52;101079.70;;;15.61;70.41
77011;BME280;65945;53.148;17.956;2023-06-26T04:14:19;101080.23;;;15.69;70.22
77011;BME280;65945;53.148;17.956;2023-06-26T04:16:46;101080.75;;;15.77;70.06
77011;BME280;65945;53.148;17.956;2023-06-26T04:19:12;101082.02;;;15.82;70.03
77011;BME280;65945;53.148;17.956;2023-06-26T04:21:39;101080.84;;;15.88;69.87
77011;BME280;65945;53.148;17.956;2023-06-26T04:24:06;101079.58;;;15.96;69.92
77011;BME280;65945;53.148;17.956;2023-06-26T04:26:33;101077.40;;;16.04;69.83
77011;BME280;65945;53.148;17.956;2023-06-26T04:29:00;101080.69;;;16.12;69.62
77011;BME280;65945;53.148;17.956;2023-06-26T04:31:27;101082.65;;;16.19;69.58
77011;BME280;65945;53.148;17.956;2023-06-26T04:33:53;101083.31;;;16.27;69.52
77011;BME280;65945;53.148;17.956;2023-06-26T04:36:21;101083.44;;;16.36;69.60
77011;BME280;65945;53.148;17.956;2023-06-26T04:38:48;101078.94;;;16.45;69.51
77011;BME280;65945;53.148;17.956;2023-06-26T04:41:15;101080.16;;;16.54;69.47
77011;BME280;65945;53.148;17.956;2023-06-26T04:43:42;101075.49;;;16.64;69.39
77011;BME280;65945;53.148;17.956;2023-06-26T04:46:08;101076.77;;;16.75;69.37
77011;BME280;65945;53.148;17.956;2023-06-26T04:48:35;101075.94;;;16.86;69.26
77011;BME280;65945;53.148;17.956;2023-06-26T04:51:02;101076.90;;;16.96;69.12
77011;BME280;65945;53.148;17.956;2023-06-26T04:53:28;101077.09;;;17.06;69.09
77011;BME280;65945;53.148;17.956;2023-06-26T04:55:55;101073.02;;;17.18;68.94
77011;BME280;65945;53.148;17.956;2023-06-26T04:58:22;101073.79;;;17.29;68.85
77011;BME280;65945;53.148;17.956;2023-06-26T05:00:48;101079.36;;;17.41;68.65
77011;BME280;65945;53.148;17.956;2023-06-26T05:03:17;101078.84;;;17.54;68.41
77011;BME280;65945;53.148;17.956;2023-06-26T05:05:43;101081.48;;;17.72;68.37
77011;BME280;65945;53.148;17.956;2023-06-26T05:10:41;101082.07;;;18.00;67.70
77011;BME280;65945;53.148;17.956;2023-06-26T05:13:08;101078.19;;;18.14;67.49
77011;BME280;65945;53.148;17.956;2023-06-26T05:15:35;101080.30;;;18.28;67.15
77011;BME280;65945;53.148;17.956;2023-06-26T05:18:02;101078.02;;;18.39;66.74
77011;BME280;65945;53.148;17.956;2023-06-26T05:20:28;101075.08;;;18.49;66.60
77011;BME280;65945;53.148;17.956;2023-06-26T05:22:55;101074.00;;;18.62;66.42
77011;BME280;65945;53.148;17.956;2023-06-26T05:25:22;101072.63;;;18.78;66.35
77011;BME280;65945;53.148;17.956;2023-06-26T05:27:50;101069.60;;;18.94;65.93
77011;BME280;65945;53.148;17.956;2023-06-26T05:30:17;101068.65;;;19.08;65.36
77011;BME280;65945;53.148;17.956;2023-06-26T05:32:46;101069.05;;;19.18;64.94
77011;BME280;65945;53.148;17.956;2023-06-26T05:35:14;101067.42;;;19.29;64.97
77011;BME280;65945;53.148;17.956;2023-06-26T05:37:42;101066.45;;;19.40;64.62
77011;BME280;65945;53.148;17.956;2023-06-26T05:40:09;101063.80;;;19.50;64.14
77011;BME280;65945;53.148;17.956;2023-06-26T05:42:36;101061.71;;;19.59;64.21
77011;BME280;65945;53.148;17.956;2023-06-26T05:45:03;101063.86;;;19.70;63.64
77011;BME280;65945;53.148;17.956;2023-06-26T05:47:29;101064.48;;;19.79;63.21
77011;BME280;65945;53.148;17.956;2023-06-26T05:49:56;101063.40;;;19.86;62.81
77011;BME280;65945;53.148;17.956;2023-06-26T05:52:23;101060.42;;;19.89;62.55
77011;BME280;65945;53.148;17.956;2023-06-26T05:54:50;101059.39;;;19.92;62.58
77011;BME280;65945;53.148;17.956;2023-06-26T05:57:17;101058.35;;;20.02;63.16
77011;BME280;65945;53.148;17.956;2023-06-26T05:59:44;101060.27;;;20.19;63.11
77011;BME280;65945;53.148;17.956;2023-06-26T06:02:11;101060.33;;;20.36;62.68
77011;BME280;65945;53.148;17.956;2023-06-26T06:04:38;101060.14;;;20.51;62.26
77011;BME280;65945;53.148;17.956;2023-06-26T06:07:05;101055.64;;;20.63;61.96
77011;BME280;65945;53.148;17.956;2023-06-26T06:09:32;101053.10;;;20.73;61.82
77011;BME280;65945;53.148;17.956;2023-06-26T06:11:59;101051.21;;;20.86;61.76
77011;BME280;65945;53.148;17.956;2023-06-26T06:14:25;101050.78;;;21.01;61.57
77011;BME280;65945;53.148;17.956;2023-06-26T06:16:52;101053.36;;;21.16;61.30
77011;BME280;65945;53.148;17.956;2023-06-26T06:19:19;101049.98;;;21.29;60.08
77011;BME280;65945;53.148;17.956;2023-06-26T06:21:45;101050.71;;;21.36;59.45
77011;BME280;65945;53.148;17.956;2023-06-26T06:24:12;101051.52;;;21.39;59.12
77011;BME280;65945;53.148;17.956;2023-06-26T06:26:38;101047.23;;;21.44;59.48
77011;BME280;65945;53.148;17.956;2023-06-26T06:29:05;101047.56;;;21.52;58.90
77011;BME280;65945;53.148;17.956;2023-06-26T06:31:32;101045.99;;;21.57;58.90
77011;BME280;65945;53.148;17.956;2023-06-26T06:33:59;101040.81;;;21.65;58.67
77011;BME280;65945;53.148;17.956;2023-06-26T06:36:25;101037.68;;;21.75;59.12
77011;BME280;65945;53.148;17.956;2023-06-26T06:38:52;101044.61;;;21.90;59.00
77011;BME280;65945;53.148;17.956;2023-06-26T06:41:20;101040.17;;;22.02;58.59
77011;BME280;65945;53.148;17.956;2023-06-26T06:43:46;101037.51;;;22.15;58.47
77011;BME280;65945;53.148;17.956;2023-06-26T06:46:13;101037.21;;;22.29;58.32
77011;BME280;65945;53.148;17.956;2023-06-26T06:48:40;101035.79;;;22.41;58.12
77011;BME280;65945;53.148;17.956;2023-06-26T06:51:06;101036.94;;;22.53;57.45
77011;BME280;65945;53.148;17.956;2023-06-26T06:53:33;101040.38;;;22.65;57.50
77011;BME280;65945;53.148;17.956;2023-06-26T06:55:59;101039.12;;;22.79;57.22
77011;BME280;65945;53.148;17.956;2023-06-26T06:58:26;101038.33;;;22.94;56.56
77011;BME280;65945;53.148;17.956;2023-06-26T07:00:52;101037.42;;;23.06;56.53
77011;BME280;65945;53.148;17.956;2023-06-26T07:03:19;101034.70;;;23.19;56.04
77011;BME280;65945;53.148;17.956;2023-06-26T07:05:47;101039.16;;;23.29;55.46
77011;BME280;65945;53.148;17.956;2023-06-26T07:08:14;101036.44;;;23.38;55.10
77011;BME280;65945;53.148;17.956;2023-06-26T07:10:41;101041.23;;;23.46;55.09
77011;BME280;65945;53.148;17.956;2023-06-26T07:13:07;101037.44;;;23.51;53.94
77011;BME280;65945;53.148;17.956;2023-06-26T07:15:34;101034.90;;;23.53;54.23
77011;BME280;65945;53.148;17.956;2023-06-26T07:18:00;101033.96;;;23.59;54.56
77011;BME280;65945;53.148;17.956;2023-06-26T07:20:27;101038.80;;;23.71;54.00
77011;BME280;65945;53.148;17.956;2023-06-26T07:22:53;101034.40;;;23.80;53.06
77011;BME280;65945;53.148;17.956;2023-06-26T07:25:20;101031.20;;;23.83;53.11
77011;BME280;65945;53.148;17.956;2023-06-26T07:27:47;101037.57;;;23.85;51.76
77011;BME280;65945;53.148;17.956;2023-06-26T07:30:13;101033.37;;;23.78;52.20
77011;BME280;65945;53.148;17.956;2023-06-26T07:32:40;101033.73;;;23.82;52.82
77011;BME280;65945;53.148;17.956;2023-06-26T07:35:08;101034.99;;;23.94;53.06
77011;BME280;65945;53.148;17.956;2023-06-26T07:37:35;101033.17;;;24.07;52.18
77011;BME280;65945;53.148;17.956;2023-06-26T07:40:02;101033.21;;;24.17;52.19
77011;BME280;65945;53.148;17.956;2023-06-26T07:42:29;101032.73;;;24.28;51.40
77011;BME280;65945;53.148;17.956;2023-06-26T07:44:55;101027.91;;;24.35;50.42
77011;BME280;65945;53.148;17.956;2023-06-26T07:47:22;101027.02;;;24.34;49.83
77011;BME280;65945;53.148;17.956;2023-06-26T07:49:49;101023.31;;;24.40;50.48
77011;BME280;65945;53.148;17.956;2023-06-26T07:52:15;101021.31;;;24.55;50.24
77011;BME280;65945;53.148;17.956;2023-06-26T07:54:42;101018.72;;;24.71;49.59
77011;BME280;65945;53.148;17.956;2023-06-26T07:57:09;101022.16;;;24.89;49.23
77011;BME280;65945;53.148;17.956;2023-06-26T07:59:37;101017.91;;;25.02;47.66
77011;BME280;65945;53.148;17.956;2023-06-26T08:02:04;101016.39;;;25.06;47.46
77011;BME280;65945;53.148;17.956;2023-06-26T08:04:31;101016.68;;;25.04;47.45
77011;BME280;65945;53.148;17.956;2023-06-26T08:06:59;101010.34;;;25.09;47.78
77011;BME280;65945;53.148;17.956;2023-06-26T08:09:28;101011.09;;;25.20;47.94
77011;BME280;65945;53.148;17.956;2023-06-26T08:11:55;101010.83;;;25.30;47.11
77011;BME280;65945;53.148;17.956;2023-06-26T08:14:23;101004.20;;;25.37;47.03
77011;BME280;65945;53.148;17.956;2023-06-26T08:16:50;101001.71;;;25.41;46.66
77011;BME280;65945;53.148;17.956;2023-06-26T08:19:17;101000.67;;;25.39;46.11
77011;BME280;65945;53.148;17.956;2023-06-26T08:21:44;100995.95;;;25.38;46.80
77011;BME280;65945;53.148;17.956;2023-06-26T08:24:12;100992.96;;;25.50;47.05
77011;BME280;65945;53.148;17.956;2023-06-26T08:26:45;100992.21;;;25.69;47.10
77011;BME280;65945;53.148;17.956;2023-06-26T08:29:12;100987.23;;;25.90;46.86
77011;BME280;65945;53.148;17.956;2023-06-26T08:31:40;100987.68;;;26.10;46.37
77011;BME280;65945;53.148;17.956;2023-06-26T08:34:07;100989.23;;;26.28;45.88
77011;BME280;65945;53.148;17.956;2023-06-26T08:36:34;100990.83;;;26.42;45.79
77011;BME280;65945;53.148;17.956;2023-06-26T08:39:01;100992.68;;;26.56;45.09
77011;BME280;65945;53.148;17.956;2023-06-26T08:41:29;100991.50;;;26.64;44.58
77011;BME280;65945;53.148;17.956;2023-06-26T08:43:55;100989.42;;;26.72;44.33
77011;BME280;65945;53.148;17.956;2023-06-26T08:46:22;100986.25;;;26.79;44.19
77011;BME280;65945;53.148;17.956;2023-06-26T08:48:54;100986.45;;;26.89;44.24
77011;BME280;65945;53.148;17.956;2023-06-26T08:51:24;100987.08;;;27.03;43.66
77011;BME280;65945;53.148;17.956;2023-06-26T08:53:57;100983.61;;;27.12;43.06
77011;BME280;65945;53.148;17.956;2023-06-26T08:56:28;100982.87;;;27.21;42.73
77011;BME280;65945;53.148;17.956;2023-06-26T08:58:57;100983.30;;;27.34;43.14
77011;BME280;65945;53.148;17.956;2023-06-26T09:01:24;100980.14;;;27.51;42.55
77011;BME280;65945;53.148;17.956;2023-06-26T09:03:51;100981.45;;;27.62;42.54
77011;BME280;65945;53.148;17.956;2023-06-26T09:06:18;100978.77;;;27.57;41.40
77011;BME280;65945;53.148;17.956;2023-06-26T09:08:45;100978.73;;;27.40;41.58
77011;BME280;65945;53.148;17.956;2023-06-26T09:11:12;100978.55;;;27.21;41.24
77011;BME280;65945;53.148;17.956;2023-06-26T09:13:39;100977.02;;;27.07;41.21
77011;BME280;65945;53.148;17.956;2023-06-26T09:16:07;100973.38;;;27.05;41.37
77011;BME280;65945;53.148;17.956;2023-06-26T09:18:36;100970.19;;;27.11;41.85
77011;BME280;65945;53.148;17.956;2023-06-26T09:21:07;100966.25;;;27.22;41.07
77011;BME280;65945;53.148;17.956;2023-06-26T09:23:35;100963.23;;;27.31;41.49
77011;BME280;65945;53.148;17.956;2023-06-26T09:26:06;100965.50;;;27.48;41.03
77011;BME280;65945;53.148;17.956;2023-06-26T09:28:33;100964.25;;;27.66;40.57
77011;BME280;65945;53.148;17.956;2023-06-26T09:31:05;100962.98;;;27.81;40.05
77011;BME280;65945;53.148;17.956;2023-06-26T09:33:36;100964.29;;;27.96;39.87
77011;BME280;65945;53.148;17.956;2023-06-26T09:36:07;100957.87;;;28.10;39.24
77011;BME280;65945;53.148;17.956;2023-06-26T09:38:37;100958.49;;;28.17;38.40
77011;BME280;65945;53.148;17.956;2023-06-26T09:41:04;100955.59;;;28.08;37.15
77011;BME280;65945;53.148;17.956;2023-06-26T09:43:31;100949.14;;;27.89;37.14
77011;BME280;65945;53.148;17.956;2023-06-26T09:45:58;100942.05;;;27.80;37.33
77011;BME280;65945;53.148;17.956;2023-06-26T09:48:28;100943.61;;;27.81;37.78
77011;BME280;65945;53.148;17.956;2023-06-26T09:50:55;100943.05;;;27.90;37.93
77011;BME280;65945;53.148;17.956;2023-06-26T09:53:22;100940.81;;;28.01;36.63
77011;BME280;65945;53.148;17.956;2023-06-26T09:55:48;100946.30;;;28.15;36.85
77011;BME280;65945;53.148;17.956;2023-06-26T09:58:16;100941.77;;;28.35;36.65
77011;BME280;65945;53.148;17.956;2023-06-26T10:00:44;100938.88;;;28.56;36.35
77011;BME280;65945;53.148;17.956;2023-06-26T10:03:11;100936.98;;;28.76;35.83
77011;BME280;65945;53.148;17.956;2023-06-26T10:05:40;100939.44;;;28.94;35.37
77011;BME280;65945;53.148;17.956;2023-06-26T10:08:07;100937.50;;;29.08;34.63
77011;BME280;65945;53.148;17.956;2023-06-26T10:10:36;100935.12;;;29.12;34.25
77011;BME280;65945;53.148;17.956;2023-06-26T10:13:15;100927.77;;;29.10;34.74
77011;BME280;65945;53.148;17.956;2023-06-26T10:15:44;100928.11;;;29.17;35.07
77011;BME280;65945;53.148;17.956;2023-06-26T10:18:13;100927.86;;;29.28;34.82
77011;BME280;65945;53.148;17.956;2023-06-26T10:20:45;100923.67;;;29.31;34.59
77011;BME280;65945;53.148;17.956;2023-06-26T10:23:14;100922.13;;;29.32;34.78
77011;BME280;65945;53.148;17.956;2023-06-26T10:25:44;100920.72;;;29.36;34.68
77011;BME280;65945;53.148;17.956;2023-06-26T10:28:12;100915.67;;;29.43;34.81
77011;BME280;65945;53.148;17.956;2023-06-26T10:30:42;100912.37;;;29.54;34.44
77011;BME280;65945;53.148;17.956;2023-06-26T10:33:10;100916.05;;;29.65;34.41
77011;BME280;65945;53.148;17.956;2023-06-26T10:35:42;100907.13;;;29.79;34.71
77011;BME280;65945;53.148;17.956;2023-06-26T10:38:10;100904.73;;;29.91;34.43
77011;BME280;65945;53.148;17.956;2023-06-26T10:40:45;100897.77;;;29.95;33.73
77011;BME280;65945;53.148;17.956;2023-06-26T10:43:13;100900.98;;;29.92;34.22
77011;BME280;65945;53.148;17.956;2023-06-26T10:45:45;100900.98;;;29.95;33.97
77011;BME280;65945;53.148;17.956;2023-06-26T10:48:14;100899.04;;;29.99;33.63
77011;BME280;65945;53.148;17.956;2023-06-26T10:50:41;100893.92;;;30.02;33.48
77011;BME280;65945;53.148;17.956;2023-06-26T10:55:58;100891.45;;;30.13;33.19
77011;BME280;65945;53.148;17.956;2023-06-26T11:03:44;100883.85;;;30.19;33.27
77011;BME280;65945;53.148;17.956;2023-06-26T11:06:16;100884.45;;;30.27;33.22
77011;BME280;65945;53.148;17.956;2023-06-26T11:08:51;100881.80;;;30.34;32.28
77011;BME280;65945;53.148;17.956;2023-06-26T11:11:21;100881.45;;;30.39;31.68
77011;BME280;65945;53.148;17.956;2023-06-26T11:13:48;100879.36;;;30.37;30.55
77011;BME280;65945;53.148;17.956;2023-06-26T11:16:15;100877.02;;;30.22;30.67
77011;BME280;65945;53.148;17.956;2023-06-26T11:18:42;100875.69;;;30.10;30.36
77011;BME280;65945;53.148;17.956;2023-06-26T11:21:10;100873.14;;;30.08;31.31
77011;BME280;65945;53.148;17.956;2023-06-26T11:23:40;100870.52;;;30.17;31.08
77011;BME280;65945;53.148;17.956;2023-06-26T11:26:17;100864.73;;;30.28;31.47
77011;BME280;65945;53.148;17.956;2023-06-26T11:28:51;100864.21;;;30.37;31.77
77011;BME280;65945;53.148;17.956;2023-06-26T11:31:27;100864.95;;;30.51;31.94
77011;BME280;65945;53.148;17.956;2023-06-26T11:33:57;100864.76;;;30.67;31.63
77011;BME280;65945;53.148;17.956;2023-06-26T11:36:26;100867.61;;;30.74;31.13
77011;BME280;65945;53.148;17.956;2023-06-26T11:39:00;100866.10;;;30.78;31.27
77011;BME280;65945;53.148;17.956;2023-06-26T11:41:29;100868.35;;;30.88;31.14
77011;BME280;65945;53.148;17.956;2023-06-26T11:44:09;100867.36;;;30.96;30.89
77011;BME280;65945;53.148;17.956;2023-06-26T11:46:37;100860.45;;;31.02;31.12
77011;BME280;65945;53.148;17.956;2023-06-26T11:49:05;100855.36;;;31.11;31.07
77011;BME280;65945;53.148;17.956;2023-06-26T11:51:32;100852.59;;;31.15;30.62
77011;BME280;65945;53.148;17.956;2023-06-26T11:54:03;100849.41;;;31.18;30.94
77011;BME280;65945;53.148;17.956;2023-06-26T11:56:31;100847.11;;;31.24;31.13
77011;BME280;65945;53.148;17.956;2023-06-26T11:59:05;100846.45;;;31.30;30.46
77011;BME280;65945;53.148;17.956;2023-06-26T12:01:42;100844.86;;;31.36;30.54
77011;BME280;65945;53.148;17.956;2023-06-26T12:04:16;100839.41;;;31.41;30.64
77011;BME280;65945;53.148;17.956;2023-06-26T12:06:47;100836.25;;;31.48;30.19
77011;BME280;65945;53.148;17.956;2023-06-26T12:09:15;100837.09;;;31.53;30.01
77011;BME280;65945;53.148;17.956;2023-06-26T12:11:44;100831.05;;;31.51;29.96
77011;BME280;65945;53.148;17.956;2023-06-26T12:14:15;100828.42;;;31.51;29.06
77011;BME280;65945;53.148;17.956;2023-06-26T12:16:43;100826.15;;;31.49;28.63
77011;BME280;65945;53.148;17.956;2023-06-26T12:19:09;100824.78;;;31.38;28.16
77011;BME280;65945;53.148;17.956;2023-06-26T12:24:04;100816.09;;;30.94;26.84
77011;BME280;65945;53.148;17.956;2023-06-26T12:26:31;100813.10;;;30.77;27.49
77011;BME280;65945;53.148;17.956;2023-06-26T12:29:03;100811.40;;;30.73;28.49
77011;BME280;65945;53.148;17.956;2023-06-26T12:31:31;100807.52;;;30.75;28.70
77011;BME280;65945;53.148;17.956;2023-06-26T12:33:59;100806.88;;;30.74;29.22
77011;BME280;65945;53.148;17.956;2023-06-26T12:36:26;100805.79;;;30.75;28.27
77011;BME280;65945;53.148;17.956;2023-06-26T12:38:54;100808.50;;;30.62;27.63
77011;BME280;65945;53.148;17.956;2023-06-26T12:41:24;100805.48;;;30.56;27.68
77011;BME280;65945;53.148;17.956;2023-06-26T12:43:55;100794.71;;;30.63;27.88
77011;BME280;65945;53.148;17.956;2023-06-26T12:46:33;100791.95;;;30.71;27.57
77011;BME280;65945;53.148;17.956;2023-06-26T12:49:01;100785.05;;;30.62;26.93
77011;BME280;65945;53.148;17.956;2023-06-26T12:51:29;100787.33;;;30.42;26.27
77011;BME280;65945;53.148;17.956;2023-06-26T12:53:56;100781.72;;;30.21;26.15
77011;BME280;65945;53.148;17.956;2023-06-26T12:56:22;100778.02;;;30.04;25.90
77011;BME280;65945;53.148;17.956;2023-06-26T12:58:49;100773.42;;;30.02;27.06
77011;BME280;65945;53.148;17.956;2023-06-26T13:01:15;100773.89;;;30.07;27.51
77011;BME280;65945;53.148;17.956;2023-06-26T13:03:43;100768.05;;;30.09;28.53